Peeples Valley, Arizona
Current Conditions -  °F | °C
As of 9:53 PM on Tuesday 21 Oct 2014 (Local Time) from KPRC Reporting Station
Clear Clear  
Wind Chill: 56°   Ceiling: Unl
Heat Index: 56°   Visibility: 10mi
Dew Point: 42°   Wind: 7mph
Humidity: 60%   Direction: 180°S
Pressure: 30.07"   Gusts: NA
Location:  34.4627°N, 112.899°W
Report Text: KPRC 220453Z 18006KT 10SM CLR 13/06 A3007 RMK AO2 SLP122 T01330056
Loading
Personal Weather Stations






























Interactive Weather Map
Tropical Storm Tracking
New forecast layout! Learn more

10-Day Weather Forecast

Advertisements
Track Severe Weather on mobile